Time;durP1;ratioP1;P1;durP2;ratioP2;P2;SDS_P1;SDS_P2;PMS_P1;PMS_P2;Temp;Humidity;BMP_temperature;BMP_pressure;BME280_temperature;BME280_humidity;BME280_pressure;Samples;Min_cycle;Max_cycle;Signal;HPM_P1;HPM_P2
2022/03/29 00:02:28;;;;;;;30.30;23.97;;;;;;;;;;6105711;29;20402;-72
2022/03/29 00:05:49;;;;;;;31.87;24.97;;;;;;;;;;6107844;29;20239;-73
2022/03/29 00:09:11;;;;;;;39.43;27.17;;;;;;;;;;6104044;29;20224;-72
2022/03/29 00:12:33;;;;;;;29.60;23.37;;;;;;;;;;6107344;29;20231;-72
2022/03/29 00:15:53;;;;;;;29.63;24.67;;;;;;;;;;6104407;29;20231;-72
2022/03/29 00:19:15;;;;;;;30.47;25.57;;;;;;;;;;6104448;29;20236;-72
2022/03/29 00:22:36;;;;;;;28.00;24.80;;;;;;;;;;6108396;29;20251;-72
2022/03/29 00:25:58;;;;;;;27.60;22.30;;;;;;;;;;6107874;29;20232;-73
2022/03/29 00:29:19;;;;;;;29.57;25.30;;;;;;;;;;6096179;29;20236;-73
2022/03/29 00:32:40;;;;;;;25.97;23.10;;;;;;;;;;6105923;29;20243;-71
2022/03/29 00:36:01;;;;;;;27.23;22.83;;;;;;;;;;6109753;29;20327;-72
2022/03/29 00:39:22;;;;;;;27.47;23.87;;;;;;;;;;6108602;29;20232;-72
2022/03/29 00:42:44;;;;;;;28.87;24.27;;;;;;;;;;6108991;29;20638;-71
2022/03/29 00:46:04;;;;;;;28.57;25.30;;;;;;;;;;6105001;29;20251;-71
2022/03/29 00:49:25;;;;;;;27.23;22.63;;;;;;;;;;6105987;29;20231;-72
2022/03/29 00:52:46;;;;;;;32.63;25.60;;;;;;;;;;6105347;29;20227;-72
2022/03/29 00:56:08;;;;;;;32.97;24.57;;;;;;;;;;6108227;29;20231;-72
2022/03/29 00:59:31;;;;;;;33.00;26.70;;;;;;;;;;6104376;29;20331;-72
2022/03/29 01:02:53;;;;;;;30.57;24.57;;;;;;;;;;6096141;29;20232;-71
2022/03/29 01:06:14;;;;;;;34.70;25.67;;;;;;;;;;6109791;29;20228;-72
2022/03/29 01:09:35;;;;;;;44.43;24.93;;;;;;;;;;6105452;29;20821;-73
2022/03/29 01:12:56;;;;;;;30.53;24.27;;;;;;;;;;6107789;29;20326;-72
2022/03/29 01:20:00;;;;;;;28.53;22.67;;;;;;;;;;6102428;29;20231;-72
2022/03/29 01:23:22;;;;;;;28.73;23.90;;;;;;;;;;6103516;29;20852;-73
2022/03/29 01:26:43;;;;;;;27.17;22.03;;;;;;;;;;6106323;29;20231;-73
2022/03/29 01:30:05;;;;;;;29.90;23.60;;;;;;;;;;6107027;29;20236;-72
2022/03/29 01:33:28;;;;;;;27.07;21.93;;;;;;;;;;6103216;29;20510;-73
2022/03/29 01:36:49;;;;;;;23.93;20.27;;;;;;;;;;6109118;29;20319;-72
2022/03/29 01:40:13;;;;;;;23.57;21.10;;;;;;;;;;6104836;29;20227;-72
2022/03/29 01:43:34;;;;;;;34.07;20.50;;;;;;;;;;6102643;29;20701;-72
2022/03/29 01:46:55;;;;;;;23.87;18.43;;;;;;;;;;6104320;29;20232;-72
2022/03/29 01:50:16;;;;;;;28.00;22.07;;;;;;;;;;6105354;29;20236;-74
2022/03/29 01:53:38;;;;;;;23.90;19.57;;;;;;;;;;6105574;29;20823;-72
2022/03/29 01:57:00;;;;;;;24.57;21.30;;;;;;;;;;6097071;29;20232;-72
2022/03/29 02:00:34;;;;;;;25.63;20.50;;;;;;;;;;6094494;29;20236;-71
2022/03/29 02:03:55;;;;;;;22.60;19.53;;;;;;;;;;6105752;29;20239;-73
2022/03/29 02:07:16;;;;;;;24.50;18.90;;;;;;;;;;6104727;29;20258;-72
2022/03/29 02:10:37;;;;;;;26.10;18.90;;;;;;;;;;6102151;29;20613;-72
2022/03/29 02:14:00;;;;;;;23.17;17.77;;;;;;;;;;6105065;29;20231;-72
2022/03/29 02:17:21;;;;;;;24.57;17.17;;;;;;;;;;6102637;29;20256;-74
2022/03/29 02:20:42;;;;;;;20.40;15.90;;;;;;;;;;6108433;29;20236;-73
2022/03/29 02:24:03;;;;;;;22.60;16.57;;;;;;;;;;6099142;29;20602;-72
2022/03/29 02:27:23;;;;;;;18.47;15.57;;;;;;;;;;6102219;29;20240;-71
2022/03/29 02:30:46;;;;;;;18.77;16.50;;;;;;;;;;6103257;29;20239;-72
2022/03/29 02:34:07;;;;;;;20.77;14.93;;;;;;;;;;6104543;29;20240;-72
2022/03/29 02:37:28;;;;;;;21.03;15.60;;;;;;;;;;6105079;29;20319;-71
2022/03/29 02:40:49;;;;;;;21.63;14.83;;;;;;;;;;6104192;29;20232;-72
2022/03/29 02:44:10;;;;;;;24.47;15.67;;;;;;;;;;6102509;29;20247;-72
2022/03/29 02:47:33;;;;;;;26.30;17.47;;;;;;;;;;6104021;29;20516;-72
2022/03/29 02:50:53;;;;;;;23.87;17.90;;;;;;;;;;6102691;29;20318;-72
2022/03/29 02:54:15;;;;;;;19.47;14.70;;;;;;;;;;6096776;29;22237;-74
2022/03/29 02:57:36;;;;;;;17.63;15.83;;;;;;;;;;6105047;29;20625;-71
2022/03/29 03:00:57;;;;;;;18.73;15.00;;;;;;;;;;6096088;29;20590;-72
2022/03/29 03:04:20;;;;;;;16.20;14.53;;;;;;;;;;6101198;29;20271;-72
2022/03/29 03:07:41;;;;;;;19.07;12.40;;;;;;;;;;6104673;29;20236;-73
2022/03/29 03:11:02;;;;;;;20.27;14.00;;;;;;;;;;6101302;29;20245;-72
2022/03/29 03:14:23;;;;;;;16.50;11.43;;;;;;;;;;6104225;29;20236;-72
2022/03/29 03:17:44;;;;;;;17.90;11.23;;;;;;;;;;6109379;29;20227;-73
2022/03/29 03:21:06;;;;;;;14.83;8.87;;;;;;;;;;6111367;29;20235;-72
2022/03/29 03:24:27;;;;;;;15.17;9.87;;;;;;;;;;6108659;29;20239;-73
2022/03/29 03:27:47;;;;;;;14.57;9.70;;;;;;;;;;6111775;29;20227;-72
2022/03/29 03:31:08;;;;;;;18.07;9.80;;;;;;;;;;6107183;29;20236;-72
2022/03/29 03:34:29;;;;;;;16.13;9.47;;;;;;;;;;6105546;29;20231;-73
2022/03/29 03:37:51;;;;;;;16.83;8.27;;;;;;;;;;6106732;29;20228;-73
2022/03/29 03:41:12;;;;;;;19.27;9.23;;;;;;;;;;6102905;29;20653;-72
2022/03/29 03:44:33;;;;;;;16.73;7.47;;;;;;;;;;6106407;29;20227;-72
2022/03/29 03:47:54;;;;;;;13.30;7.23;;;;;;;;;;6107905;29;20326;-72
2022/03/29 03:51:15;;;;;;;12.73;7.60;;;;;;;;;;6107353;29;20240;-73
2022/03/29 03:54:38;;;;;;;16.90;7.97;;;;;;;;;;6109938;29;20243;-72
2022/03/29 03:57:59;;;;;;;15.00;7.50;;;;;;;;;;6105243;29;20527;-72
2022/03/29 04:01:20;;;;;;;19.03;8.50;;;;;;;;;;6106667;29;20232;-73
2022/03/29 04:04:40;;;;;;;15.43;6.27;;;;;;;;;;6107089;29;20239;-72
2022/03/29 04:08:01;;;;;;;12.30;6.40;;;;;;;;;;6110020;29;20652;-73
2022/03/29 04:11:24;;;;;;;16.40;7.53;;;;;;;;;;6106045;29;20800;-72
2022/03/29 04:14:45;;;;;;;13.33;6.50;;;;;;;;;;6106679;29;20228;-72
2022/03/29 04:18:06;;;;;;;15.87;7.17;;;;;;;;;;6105695;29;20646;-73
2022/03/29 04:21:26;;;;;;;19.30;6.33;;;;;;;;;;6107031;29;20228;-73
2022/03/29 04:24:47;;;;;;;13.47;5.00;;;;;;;;;;6107443;29;20239;-73
2022/03/29 04:28:10;;;;;;;16.07;6.67;;;;;;;;;;6102780;29;20266;-72
2022/03/29 04:31:31;;;;;;;34.30;19.80;;;;;;;;;;6096998;29;20240;-72
2022/03/29 04:34:52;;;;;;;23.13;9.10;;;;;;;;;;6092084;29;20539;-73
2022/03/29 04:38:13;;;;;;;14.57;5.60;;;;;;;;;;6105962;29;20232;-71
2022/03/29 04:41:34;;;;;;;17.40;5.83;;;;;;;;;;6098230;29;20236;-71
2022/03/29 04:44:56;;;;;;;19.87;5.73;;;;;;;;;;6103830;29;20857;-72
2022/03/29 04:48:17;;;;;;;18.67;5.93;;;;;;;;;;6100637;29;20250;-72
2022/03/29 04:51:38;;;;;;;24.60;7.40;;;;;;;;;;6105378;29;20232;-73
2022/03/29 04:54:59;;;;;;;20.10;5.37;;;;;;;;;;6096469;29;20235;-72
2022/03/29 04:58:21;;;;;;;28.10;7.33;;;;;;;;;;6100924;29;20232;-72
2022/03/29 05:01:43;;;;;;;23.07;6.27;;;;;;;;;;6093174;29;20974;-73
2022/03/29 05:05:05;;;;;;;17.57;6.13;;;;;;;;;;6100396;29;20251;-73
2022/03/29 05:08:25;;;;;;;20.57;5.57;;;;;;;;;;6097302;29;20319;-73
2022/03/29 05:11:46;;;;;;;19.83;6.93;;;;;;;;;;6100466;29;20256;-72
2022/03/29 05:15:08;;;;;;;17.73;6.20;;;;;;;;;;6098138;29;20239;-72
2022/03/29 05:18:31;;;;;;;21.07;6.27;;;;;;;;;;6102131;29;20224;-71
2022/03/29 05:21:51;;;;;;;18.10;7.73;;;;;;;;;;6101801;29;20223;-73
2022/03/29 05:25:13;;;;;;;19.63;6.27;;;;;;;;;;6104436;29;20588;-71
2022/03/29 05:28:34;;;;;;;22.23;8.07;;;;;;;;;;6103938;29;20232;-70
2022/03/29 05:31:56;;;;;;;25.80;6.23;;;;;;;;;;6097075;29;20937;-72
2022/03/29 05:35:18;;;;;;;18.53;5.80;;;;;;;;;;6098608;29;20324;-73
2022/03/29 05:38:38;;;;;;;15.43;5.50;;;;;;;;;;6095463;29;20581;-72
2022/03/29 05:41:59;;;;;;;19.20;6.67;;;;;;;;;;6102299;29;20236;-73
2022/03/29 05:45:20;;;;;;;19.73;5.67;;;;;;;;;;6101486;29;20247;-73
2022/03/29 05:48:52;;;;;;;17.20;5.73;;;;;;;;;;6107142;29;20234;-72
2022/03/29 05:52:14;;;;;;;18.03;4.80;;;;;;;;;;6106775;29;20251;-73
2022/03/29 05:55:36;;;;;;;16.40;4.70;;;;;;;;;;6101468;29;20239;-73
2022/03/29 05:58:57;;;;;;;18.60;5.97;;;;;;;;;;6099648;29;20243;-73
2022/03/29 06:02:18;;;;;;;20.77;6.37;;;;;;;;;;6105591;29;20280;-74
2022/03/29 06:05:42;;;;;;;21.73;5.67;;;;;;;;;;6108765;29;20240;-75
2022/03/29 06:09:04;;;;;;;13.93;5.23;;;;;;;;;;6105853;29;20256;-71
2022/03/29 06:12:25;;;;;;;14.87;4.57;;;;;;;;;;6101175;29;20235;-76
2022/03/29 06:15:46;;;;;;;12.50;4.60;;;;;;;;;;6102756;29;20283;-74
2022/03/29 06:19:07;;;;;;;20.77;6.00;;;;;;;;;;6102279;29;20231;-73
2022/03/29 06:22:28;;;;;;;15.50;4.57;;;;;;;;;;6112711;29;20236;-71
2022/03/29 06:25:51;;;;;;;13.80;4.50;;;;;;;;;;6112155;29;20319;-73
2022/03/29 06:29:12;;;;;;;14.63;5.87;;;;;;;;;;6111044;29;20311;-74
2022/03/29 06:32:33;;;;;;;19.57;4.47;;;;;;;;;;6105796;29;20236;-71
2022/03/29 06:35:55;;;;;;;13.53;4.20;;;;;;;;;;6105884;29;20232;-74
2022/03/29 06:39:15;;;;;;;15.63;3.90;;;;;;;;;;6111368;29;20232;-73
2022/03/29 06:42:38;;;;;;;19.57;6.50;;;;;;;;;;6110427;29;20521;-73
2022/03/29 06:45:59;;;;;;;14.10;4.50;;;;;;;;;;6107206;29;20334;-74
2022/03/29 06:49:20;;;;;;;14.23;4.63;;;;;;;;;;6108917;29;20952;-73
2022/03/29 06:52:42;;;;;;;17.40;4.93;;;;;;;;;;6105946;29;20260;-72
2022/03/29 06:56:03;;;;;;;10.70;5.10;;;;;;;;;;6107827;29;20251;-73
2022/03/29 06:59:25;;;;;;;14.17;5.10;;;;;;;;;;6081501;29;20330;-71
2022/03/29 07:02:46;;;;;;;17.17;5.67;;;;;;;;;;6106671;29;20232;-74
2022/03/29 07:06:08;;;;;;;14.07;4.47;;;;;;;;;;6109175;29;20228;-72
2022/03/29 07:13:07;;;;;;;13.80;7.23;;;;;;;;;;6102495;29;20232;-73
2022/03/29 07:16:30;;;;;;;12.87;3.87;;;;;;;;;;6108308;29;20255;-75
2022/03/29 07:19:51;;;;;;;15.40;4.40;;;;;;;;;;6106638;29;20247;-75
2022/03/29 07:23:11;;;;;;;21.17;5.83;;;;;;;;;;6107581;29;20592;-71
2022/03/29 07:26:32;;;;;;;13.57;4.53;;;;;;;;;;6103639;29;20244;-75
2022/03/29 07:29:53;;;;;;;13.57;4.37;;;;;;;;;;6098903;29;20239;-71
2022/03/29 07:33:17;;;;;;;8.93;3.30;;;;;;;;;;6108347;29;20256;-73
2022/03/29 07:36:38;;;;;;;16.83;5.03;;;;;;;;;;6114148;29;20242;-75
2022/03/29 07:39:59;;;;;;;8.53;3.40;;;;;;;;;;6112662;29;20509;-76
2022/03/29 07:43:20;;;;;;;9.50;2.67;;;;;;;;;;6113125;29;20346;-76
2022/03/29 07:46:41;;;;;;;9.80;3.93;;;;;;;;;;6111922;29;20240;-78
2022/03/29 07:50:06;;;;;;;11.20;4.20;;;;;;;;;;6111028;29;20533;-76
2022/03/29 07:53:29;;;;;;;11.10;3.63;;;;;;;;;;6103669;29;20240;-75
2022/03/29 07:56:50;;;;;;;9.43;3.00;;;;;;;;;;6098330;29;20315;-73
2022/03/29 08:03:55;;;;;;;8.00;3.77;;;;;;;;;;6091358;29;20231;-74
2022/03/29 08:07:17;;;;;;;12.43;3.33;;;;;;;;;;6102823;29;20261;-71
2022/03/29 08:10:37;;;;;;;8.90;3.90;;;;;;;;;;6110138;29;20235;-73
2022/03/29 08:13:58;;;;;;;9.17;4.10;;;;;;;;;;6117462;29;20235;-74
2022/03/29 08:17:20;;;;;;;10.27;2.77;;;;;;;;;;6111983;29;20228;-73
2022/03/29 08:20:41;;;;;;;6.87;2.30;;;;;;;;;;6113362;29;20228;-75
2022/03/29 08:24:03;;;;;;;9.40;3.03;;;;;;;;;;6106408;29;20236;-74
2022/03/29 08:27:25;;;;;;;9.13;4.60;;;;;;;;;;6111474;29;20247;-76
2022/03/29 08:30:46;;;;;;;6.23;2.60;;;;;;;;;;6103156;29;20236;-71
2022/03/29 08:34:07;;;;;;;12.53;3.43;;;;;;;;;;6114680;29;20235;-72
2022/03/29 08:37:28;;;;;;;8.93;3.03;;;;;;;;;;6112467;29;20624;-74
2022/03/29 08:40:55;;;;;;;8.47;3.00;;;;;;;;;;6110668;29;20243;-74
2022/03/29 08:44:16;;;;;;;14.27;3.20;;;;;;;;;;6111155;29;20251;-72
2022/03/29 08:47:37;;;;;;;10.77;2.90;;;;;;;;;;6103113;29;20224;-73
2022/03/29 08:51:00;;;;;;;8.40;2.63;;;;;;;;;;6107794;29;20255;-74
2022/03/29 08:54:21;;;;;;;13.47;4.27;;;;;;;;;;6111912;29;20235;-74
2022/03/29 08:57:43;;;;;;;10.27;3.53;;;;;;;;;;6107522;29;20315;-75
2022/03/29 09:01:04;;;;;;;8.43;2.30;;;;;;;;;;6108777;29;20235;-75
2022/03/29 09:04:29;;;;;;;6.73;3.40;;;;;;;;;;6109368;29;20236;-75
2022/03/29 09:07:52;;;;;;;10.40;3.47;;;;;;;;;;6112772;29;20949;-74
2022/03/29 09:11:13;;;;;;;8.37;3.57;;;;;;;;;;6112359;29;20657;-74
2022/03/29 09:14:50;;;;;;;10.07;2.43;;;;;;;;;;6114060;29;21968;-73
2022/03/29 09:18:12;;;;;;;7.03;2.53;;;;;;;;;;6100814;29;20252;-74
2022/03/29 09:21:41;;;;;;;7.70;2.67;;;;;;;;;;6097043;29;20227;-73
2022/03/29 09:25:03;;;;;;;8.00;2.37;;;;;;;;;;6098213;29;20294;-73
2022/03/29 09:28:24;;;;;;;8.37;3.30;;;;;;;;;;6096100;29;20237;-73
2022/03/29 09:31:47;;;;;;;7.03;3.17;;;;;;;;;;6097732;29;20232;-74
2022/03/29 09:35:12;;;;;;;7.50;2.90;;;;;;;;;;6091830;29;20626;-72
2022/03/29 09:38:36;;;;;;;7.70;4.03;;;;;;;;;;6097845;29;20330;-74
2022/03/29 09:41:58;;;;;;;7.87;3.27;;;;;;;;;;6096654;29;20726;-74
2022/03/29 09:45:41;;;;;;;7.30;2.77;;;;;;;;;;6084056;29;20311;-78
2022/03/29 09:49:04;;;;;;;6.47;2.70;;;;;;;;;;6104799;29;20248;-72
2022/03/29 09:52:25;;;;;;;7.57;2.80;;;;;;;;;;6113070;29;20287;-76
2022/03/29 09:55:59;;;;;;;9.60;4.00;;;;;;;;;;6100652;29;20239;-73
2022/03/29 09:59:20;;;;;;;6.30;2.47;;;;;;;;;;6104137;29;21556;-72
2022/03/29 10:02:42;;;;;;;6.43;3.30;;;;;;;;;;6106293;29;20236;-72
2022/03/29 10:06:06;;;;;;;9.43;3.27;;;;;;;;;;6110058;29;20243;-72
2022/03/29 10:09:31;;;;;;;8.70;2.63;;;;;;;;;;6110821;29;20228;-72
2022/03/29 10:12:52;;;;;;;4.63;2.20;;;;;;;;;;6111522;29;20227;-72
2022/03/29 10:16:16;;;;;;;10.87;3.27;;;;;;;;;;6101646;29;20239;-71
2022/03/29 10:19:38;;;;;;;8.57;3.83;;;;;;;;;;6110311;29;20267;-72
2022/03/29 10:23:01;;;;;;;8.00;2.30;;;;;;;;;;6113017;29;21817;-72
2022/03/29 10:26:24;;;;;;;6.40;2.93;;;;;;;;;;6105743;29;20236;-73
2022/03/29 10:29:45;;;;;;;6.13;2.63;;;;;;;;;;6100699;29;20231;-71
2022/03/29 10:33:16;;;;;;;9.90;3.47;;;;;;;;;;6105722;29;20241;-74
2022/03/29 10:36:59;;;;;;;5.27;2.30;;;;;;;;;;6100473;29;20232;-72
2022/03/29 10:40:41;;;;;;;6.30;2.10;;;;;;;;;;6112946;29;20231;-76
2022/03/29 10:44:04;;;;;;;5.37;1.83;;;;;;;;;;6105698;29;20259;-77
2022/03/29 10:47:28;;;;;;;4.43;2.00;;;;;;;;;;6090742;29;20248;-71
2022/03/29 10:50:59;;;;;;;6.27;2.53;;;;;;;;;;6099332;29;20236;-74
2022/03/29 10:54:32;;;;;;;5.50;2.60;;;;;;;;;;6104412;29;20239;-77
2022/03/29 10:58:11;;;;;;;7.07;2.40;;;;;;;;;;6099901;29;20227;-71
2022/03/29 11:01:33;;;;;;;6.10;1.80;;;;;;;;;;6095494;29;21280;-71
2022/03/29 11:05:08;;;;;;;12.20;2.70;;;;;;;;;;6089199;29;20243;-73
2022/03/29 11:08:30;;;;;;;4.37;1.63;;;;;;;;;;6098909;29;20228;-71
2022/03/29 11:11:51;;;;;;;3.40;1.92;;;;;;;;;;6103868;29;20873;-74
2022/03/29 11:15:46;;;;;;;4.85;1.75;;;;;;;;;;6093375;29;20318;-74
2022/03/29 11:19:38;;;;;;;4.47;2.65;;;;;;;;;;6104824;29;20232;-72
2022/03/29 11:23:00;;;;;;;5.88;2.33;;;;;;;;;;6100630;29;20239;-72
2022/03/29 11:26:22;;;;;;;3.50;1.40;;;;;;;;;;6082734;29;20240;-71
2022/03/29 11:29:46;;;;;;;4.50;2.30;;;;;;;;;;6113037;29;20235;-70
2022/03/29 11:33:09;;;;;;;4.63;2.47;;;;;;;;;;6101652;29;20228;-74
2022/03/29 11:36:32;;;;;;;3.75;1.63;;;;;;;;;;6098895;29;20610;-73
2022/03/29 11:39:53;;;;;;;7.32;1.92;;;;;;;;;;6105929;29;20236;-72
2022/03/29 11:43:19;;;;;;;7.80;2.22;;;;;;;;;;6108484;29;20236;-73
2022/03/29 11:46:45;;;;;;;6.00;1.65;;;;;;;;;;6100903;29;20251;-72
2022/03/29 11:50:08;;;;;;;7.55;2.20;;;;;;;;;;6107448;29;20243;-71
2022/03/29 11:53:30;;;;;;;5.28;2.65;;;;;;;;;;6114531;29;20263;-73
2022/03/29 11:56:51;;;;;;;5.20;1.83;;;;;;;;;;6111271;29;20240;-71
2022/03/29 12:00:23;;;;;;;5.13;1.77;;;;;;;;;;6107864;29;20602;-72
2022/03/29 12:03:45;;;;;;;3.25;1.83;;;;;;;;;;6107292;29;20240;-72
2022/03/29 12:07:07;;;;;;;5.55;1.63;;;;;;;;;;6109644;29;20231;-71
2022/03/29 12:10:28;;;;;;;3.67;1.63;;;;;;;;;;6090772;29;20314;-73
2022/03/29 12:14:00;;;;;;;3.90;1.95;;;;;;;;;;6110044;29;20770;-70
2022/03/29 12:17:21;;;;;;;4.63;2.20;;;;;;;;;;6099438;29;20243;-73
2022/03/29 12:20:42;;;;;;;5.47;1.83;;;;;;;;;;6114347;29;20339;-71
2022/03/29 12:24:07;;;;;;;5.95;2.20;;;;;;;;;;6108819;29;20232;-70
2022/03/29 12:27:28;;;;;;;5.03;2.15;;;;;;;;;;6100778;29;20236;-72
2022/03/29 12:30:49;;;;;;;5.65;1.88;;;;;;;;;;6098491;29;20239;-73
2022/03/29 12:34:12;;;;;;;8.63;2.47;;;;;;;;;;6100219;29;20322;-71
2022/03/29 12:37:34;;;;;;;4.75;1.75;;;;;;;;;;6107084;29;20496;-70
2022/03/29 12:40:59;;;;;;;8.13;2.35;;;;;;;;;;6105350;29;20232;-72
2022/03/29 12:44:31;;;;;;;4.95;1.63;;;;;;;;;;6113870;29;20263;-75
2022/03/29 12:47:53;;;;;;;6.82;2.75;;;;;;;;;;6113790;29;20310;-72
2022/03/29 12:51:15;;;;;;;5.72;2.03;;;;;;;;;;6112643;29;20680;-73
2022/03/29 12:54:37;;;;;;;6.45;2.28;;;;;;;;;;6110861;29;20251;-72
2022/03/29 12:58:02;;;;;;;5.35;2.00;;;;;;;;;;6106544;28;20234;-73
2022/03/29 13:01:27;;;;;;;4.32;1.77;;;;;;;;;;6103613;29;20236;-74
2022/03/29 13:04:49;;;;;;;5.68;1.85;;;;;;;;;;6111632;29;20602;-74
2022/03/29 13:08:10;;;;;;;3.33;1.65;;;;;;;;;;6105819;29;20228;-73
2022/03/29 13:12:21;;;;;;;5.45;2.05;;;;;;;;;;6099751;29;20327;-69
2022/03/29 13:16:22;;;;;;;5.57;1.70;;;;;;;;;;6102161;29;20267;-73
2022/03/29 13:19:52;;;;;;;7.38;3.28;;;;;;;;;;6098833;29;20231;-70
2022/03/29 13:23:13;;;;;;;4.97;2.05;;;;;;;;;;6103723;29;20239;-71
2022/03/29 13:26:37;;;;;;;6.40;2.40;;;;;;;;;;6107644;29;20770;-73
2022/03/29 13:29:58;;;;;;;8.98;3.90;;;;;;;;;;6097869;29;20571;-73
2022/03/29 13:33:20;;;;;;;7.18;2.83;;;;;;;;;;6110679;29;20244;-73
2022/03/29 13:36:41;;;;;;;7.20;2.33;;;;;;;;;;6091146;29;20227;-73
2022/03/29 13:40:02;;;;;;;7.90;3.13;;;;;;;;;;6100747;29;20986;-73
2022/03/29 13:43:23;;;;;;;7.82;2.22;;;;;;;;;;6100526;29;20236;-75
2022/03/29 13:46:44;;;;;;;7.57;2.53;;;;;;;;;;6097716;29;20680;-73
2022/03/29 13:50:09;;;;;;;7.93;2.53;;;;;;;;;;6086143;29;20657;-72
2022/03/29 13:53:30;;;;;;;10.50;2.65;;;;;;;;;;6098854;29;20504;-71
2022/03/29 13:56:51;;;;;;;5.78;2.50;;;;;;;;;;6089404;29;20323;-72
2022/03/29 14:00:15;;;;;;;4.95;2.10;;;;;;;;;;6086854;29;20240;-74
2022/03/29 14:03:37;;;;;;;5.05;2.20;;;;;;;;;;6087046;29;20240;-70
2022/03/29 14:07:01;;;;;;;7.15;2.22;;;;;;;;;;6090253;29;20252;-71
2022/03/29 14:10:22;;;;;;;5.63;1.92;;;;;;;;;;6087920;28;20319;-76
2022/03/29 14:13:43;;;;;;;9.68;3.42;;;;;;;;;;6095658;29;20236;-81
2022/03/29 14:17:04;;;;;;;5.88;2.15;;;;;;;;;;6106740;29;20236;-82
2022/03/29 14:20:26;;;;;;;6.68;2.33;;;;;;;;;;6098274;28;20240;-83
2022/03/29 14:23:48;;;;;;;6.45;1.70;;;;;;;;;;6104681;29;20606;-81
2022/03/29 14:27:09;;;;;;;6.75;1.67;;;;;;;;;;6115810;29;20617;-84
2022/03/29 14:30:30;;;;;;;5.70;1.83;;;;;;;;;;6111924;29;21088;-82
2022/03/29 14:33:51;;;;;;;6.10;1.70;;;;;;;;;;6110152;29;20223;-83
2022/03/29 14:37:12;;;;;;;5.25;1.77;;;;;;;;;;6102560;29;20228;-81
2022/03/29 14:40:34;;;;;;;5.70;2.22;;;;;;;;;;6111748;29;20326;-82
2022/03/29 14:43:55;;;;;;;8.70;2.50;;;;;;;;;;6095722;29;20255;-82
2022/03/29 14:47:17;;;;;;;5.35;2.28;;;;;;;;;;6104393;29;20486;-82
2022/03/29 14:50:38;;;;;;;4.60;1.60;;;;;;;;;;6106449;29;20232;-82
2022/03/29 14:53:58;;;;;;;4.60;1.70;;;;;;;;;;6106235;29;20327;-84
2022/03/29 14:57:21;;;;;;;5.88;1.92;;;;;;;;;;6105636;29;20327;-84
2022/03/29 15:00:41;;;;;;;6.10;1.67;;;;;;;;;;6104505;29;20711;-71
2022/03/29 15:04:02;;;;;;;6.97;2.53;;;;;;;;;;6088951;29;20235;-73
2022/03/29 15:07:23;;;;;;;5.28;1.65;;;;;;;;;;6101355;29;20235;-73
2022/03/29 15:10:44;;;;;;;6.47;2.27;;;;;;;;;;6097259;29;21601;-73
2022/03/29 15:14:06;;;;;;;7.90;2.33;;;;;;;;;;6109009;29;20742;-70
2022/03/29 15:17:27;;;;;;;4.03;1.92;;;;;;;;;;6114622;29;20624;-71
2022/03/29 15:20:48;;;;;;;4.50;1.70;;;;;;;;;;6110815;29;20313;-69
2022/03/29 15:24:09;;;;;;;3.97;1.97;;;;;;;;;;6112208;29;20331;-68
2022/03/29 15:27:31;;;;;;;7.27;2.60;;;;;;;;;;6111101;29;20255;-78
2022/03/29 15:30:53;;;;;;;6.00;2.17;;;;;;;;;;6114411;28;20315;-78
2022/03/29 15:34:29;;;;;;;8.97;3.27;;;;;;;;;;6114400;29;20570;-78
2022/03/29 15:37:50;;;;;;;7.67;2.07;;;;;;;;;;6108352;29;20243;-79
2022/03/29 15:41:13;;;;;;;10.20;2.20;;;;;;;;;;6113541;29;20496;-80
2022/03/29 15:44:36;;;;;;;6.23;2.30;;;;;;;;;;6098074;29;20232;-78
2022/03/29 15:47:59;;;;;;;5.80;2.63;;;;;;;;;;6111297;29;20232;-80
2022/03/29 15:51:22;;;;;;;8.33;3.10;;;;;;;;;;6113391;28;20239;-79
2022/03/29 15:54:44;;;;;;;5.97;2.90;;;;;;;;;;6108572;28;20251;-79
2022/03/29 15:58:05;;;;;;;6.77;1.97;;;;;;;;;;6111853;29;20244;-81
2022/03/29 16:01:27;;;;;;;7.27;2.13;;;;;;;;;;6115932;29;20953;-80
2022/03/29 16:05:23;;;;;;;6.03;2.67;;;;;;;;;;6104727;29;20240;-81
2022/03/29 16:08:44;;;;;;;6.93;2.40;;;;;;;;;;6095347;28;20235;-79
2022/03/29 16:12:07;;;;;;;5.43;2.30;;;;;;;;;;6112789;29;20637;-82
2022/03/29 16:15:28;;;;;;;6.07;2.23;;;;;;;;;;6111417;29;20243;-80
2022/03/29 16:18:49;;;;;;;4.87;1.90;;;;;;;;;;6113765;29;20232;-85
2022/03/29 16:22:12;;;;;;;5.57;2.00;;;;;;;;;;6106595;29;20223;-81
2022/03/29 16:25:35;;;;;;;6.87;2.60;;;;;;;;;;6095815;29;20244;-78
2022/03/29 16:28:56;;;;;;;6.50;2.77;;;;;;;;;;6108078;29;20248;-76
2022/03/29 16:32:18;;;;;;;6.80;2.80;;;;;;;;;;6106877;29;20256;-76
2022/03/29 16:35:40;;;;;;;7.13;2.47;;;;;;;;;;6107800;29;20518;-76
2022/03/29 16:39:04;;;;;;;5.83;2.53;;;;;;;;;;6090425;29;20237;-78
2022/03/29 16:42:25;;;;;;;5.17;2.60;;;;;;;;;;6110641;29;20235;-78
2022/03/29 16:45:46;;;;;;;7.00;2.00;;;;;;;;;;6098165;29;20589;-78
2022/03/29 16:49:07;;;;;;;7.03;2.73;;;;;;;;;;6114351;29;20563;-76
2022/03/29 16:52:28;;;;;;;8.07;2.50;;;;;;;;;;6088633;29;20532;-77
2022/03/29 16:55:50;;;;;;;11.33;2.90;;;;;;;;;;6111915;29;20239;-77
2022/03/29 16:59:12;;;;;;;8.87;2.20;;;;;;;;;;6103074;29;20558;-77
2022/03/29 17:02:33;;;;;;;6.57;2.30;;;;;;;;;;6093121;29;20231;-77
2022/03/29 17:05:54;;;;;;;7.77;2.37;;;;;;;;;;6108775;29;20251;-77
2022/03/29 17:09:15;;;;;;;7.20;2.47;;;;;;;;;;6106550;29;20235;-78
2022/03/29 17:12:37;;;;;;;8.33;2.83;;;;;;;;;;6110441;29;20236;-78
2022/03/29 17:16:00;;;;;;;9.57;3.27;;;;;;;;;;6106052;29;20242;-78
2022/03/29 17:19:21;;;;;;;3.80;2.03;;;;;;;;;;6112742;29;20507;-77
2022/03/29 17:22:42;;;;;;;9.27;3.03;;;;;;;;;;6108141;29;20555;-78
2022/03/29 17:26:03;;;;;;;8.17;3.53;;;;;;;;;;6104115;29;20227;-79
2022/03/29 17:29:25;;;;;;;6.43;2.80;;;;;;;;;;6107043;29;20240;-78
2022/03/29 17:32:48;;;;;;;7.27;2.97;;;;;;;;;;6103908;29;20775;-79
2022/03/29 17:36:09;;;;;;;8.70;3.13;;;;;;;;;;6106744;29;20224;-78
2022/03/29 17:39:32;;;;;;;8.33;2.87;;;;;;;;;;6116234;29;20603;-79
2022/03/29 17:42:52;;;;;;;7.73;2.70;;;;;;;;;;6106315;28;20217;-78
2022/03/29 17:46:15;;;;;;;9.87;3.30;;;;;;;;;;6107891;29;20464;-78
2022/03/29 17:49:36;;;;;;;5.27;2.73;;;;;;;;;;6106927;29;20263;-80
2022/03/29 17:52:56;;;;;;;7.50;2.17;;;;;;;;;;6102766;29;20318;-78
2022/03/29 17:56:17;;;;;;;11.43;3.87;;;;;;;;;;6106174;29;20247;-78
2022/03/29 17:59:38;;;;;;;9.27;2.77;;;;;;;;;;6110500;29;20618;-77
2022/03/29 18:03:01;;;;;;;7.13;2.70;;;;;;;;;;6099620;29;20243;-77
2022/03/29 18:06:22;;;;;;;7.70;2.37;;;;;;;;;;6103511;29;20308;-78
2022/03/29 18:09:43;;;;;;;4.97;1.97;;;;;;;;;;6106341;29;20251;-77
2022/03/29 18:13:04;;;;;;;4.67;1.80;;;;;;;;;;6110144;29;20236;-78
2022/03/29 18:16:26;;;;;;;6.73;2.20;;;;;;;;;;6103045;29;20263;-79
2022/03/29 18:19:50;;;;;;;5.67;2.80;;;;;;;;;;6104149;29;20228;-77
2022/03/29 18:23:11;;;;;;;5.30;2.10;;;;;;;;;;6104764;29;20531;-79
2022/03/29 18:26:32;;;;;;;9.00;2.87;;;;;;;;;;6102397;29;20232;-79
2022/03/29 18:29:53;;;;;;;5.60;1.97;;;;;;;;;;6107160;29;20235;-79
2022/03/29 18:33:16;;;;;;;7.40;3.17;;;;;;;;;;6109802;29;20227;-78
2022/03/29 18:36:38;;;;;;;8.20;2.30;;;;;;;;;;6106023;29;20255;-77
2022/03/29 18:39:59;;;;;;;7.67;2.70;;;;;;;;;;6107832;29;20243;-77
2022/03/29 18:43:21;;;;;;;8.90;2.50;;;;;;;;;;6110667;29;20315;-77
2022/03/29 18:46:42;;;;;;;11.83;6.43;;;;;;;;;;6101116;29;20248;-79
2022/03/29 18:50:05;;;;;;;9.67;2.67;;;;;;;;;;6109670;29;20268;-75
2022/03/29 18:53:27;;;;;;;9.83;2.80;;;;;;;;;;6105936;29;20232;-75
2022/03/29 18:56:48;;;;;;;11.07;3.73;;;;;;;;;;6098567;29;20236;-76
2022/03/29 19:00:11;;;;;;;7.40;2.40;;;;;;;;;;6103749;29;20228;-76
2022/03/29 19:03:32;;;;;;;7.50;2.80;;;;;;;;;;6104691;29;20326;-77
2022/03/29 19:06:54;;;;;;;6.20;2.33;;;;;;;;;;6094594;29;20232;-77
2022/03/29 19:10:18;;;;;;;8.40;3.03;;;;;;;;;;6105072;29;20235;-76
2022/03/29 19:13:39;;;;;;;7.43;2.57;;;;;;;;;;6107027;29;20247;-76
2022/03/29 19:17:01;;;;;;;8.17;3.37;;;;;;;;;;6095924;29;20236;-77
2022/03/29 19:20:22;;;;;;;8.93;2.97;;;;;;;;;;6106950;29;20311;-77
2022/03/29 19:23:47;;;;;;;7.03;3.53;;;;;;;;;;6107113;29;21087;-77
2022/03/29 19:27:10;;;;;;;9.73;4.33;;;;;;;;;;6106692;29;20232;-76
2022/03/29 19:30:32;;;;;;;5.87;2.23;;;;;;;;;;6100327;29;20240;-76
2022/03/29 19:33:53;;;;;;;7.50;3.40;;;;;;;;;;6110945;29;20231;-77
2022/03/29 19:37:14;;;;;;;9.33;3.27;;;;;;;;;;6094263;29;20240;-75
2022/03/29 19:40:35;;;;;;;5.30;2.90;;;;;;;;;;6097709;29;20236;-76
2022/03/29 19:44:00;;;;;;;8.00;3.10;;;;;;;;;;6098009;29;20239;-76
2022/03/29 19:47:23;;;;;;;6.70;3.40;;;;;;;;;;6088700;29;20262;-78
2022/03/29 19:50:46;;;;;;;6.07;2.00;;;;;;;;;;6084585;29;20243;-81
2022/03/29 19:54:06;;;;;;;10.47;3.37;;;;;;;;;;6098866;29;20535;-77
2022/03/29 19:57:28;;;;;;;7.03;3.97;;;;;;;;;;6095411;29;20236;-77
2022/03/29 20:00:55;;;;;;;5.67;3.13;;;;;;;;;;6099374;29;20240;-76
2022/03/29 20:04:17;;;;;;;8.80;3.90;;;;;;;;;;6091289;29;20231;-76
2022/03/29 20:07:40;;;;;;;7.33;3.50;;;;;;;;;;6107474;29;20280;-77
2022/03/29 20:11:01;;;;;;;5.10;3.50;;;;;;;;;;6104033;29;20240;-77
2022/03/29 20:14:22;;;;;;;9.33;3.73;;;;;;;;;;6107153;29;20240;-77
2022/03/29 20:17:46;;;;;;;9.60;2.87;;;;;;;;;;6101919;29;20236;-76